Time;durP1;ratioP1;P1;durP2;ratioP2;P2;SDS_P1;SDS_P2;PMS_P1;PMS_P2;Temp;Humidity;BMP_temperature;BMP_pressure;BME280_temperature;BME280_humidity;BME280_pressure;Samples;Min_cycle;Max_cycle;Signal;HPM_P1;HPM_P2
2022/01/05 00:01:24;;;;;;;;;1.75;1.75;;;;;7.72;57.22;100647.38;6313164;22;48121;-86
2022/01/05 00:03:50;;;;;;;;;2.50;1.25;;;;;7.71;57.81;100641.28;6341745;22;45136;-85
2022/01/05 00:06:15;;;;;;;;;2.00;2.00;;;;;7.71;56.93;100653.50;6341898;22;45240;-85
2022/01/05 00:08:40;;;;;;;;;1.00;1.00;;;;;7.69;57.29;100652.69;6341668;22;45424;-84
2022/01/05 00:11:07;;;;;;;;;2.00;1.25;;;;;7.70;57.40;100657.03;6341884;22;46209;-87
2022/01/05 00:13:33;;;;;;;;;1.00;1.00;;;;;7.69;57.72;100660.53;6313551;22;45293;-86
2022/01/05 00:15:58;;;;;;;;;1.00;1.00;;;;;7.69;57.58;100663.16;6313195;22;45356;-87
2022/01/05 00:18:24;;;;;;;;;1.25;1.25;;;;;7.70;57.00;100667.50;6341813;22;45363;-87
2022/01/05 00:20:49;;;;;;;;;3.00;1.50;;;;;7.65;56.98;100670.22;6341533;22;46225;-86
2022/01/05 00:23:14;;;;;;;;;2.75;2.00;;;;;7.62;56.87;100667.66;6340862;22;45282;-87
2022/01/05 00:25:40;;;;;;;;;4.50;3.00;;;;;7.56;56.19;100665.16;6313512;22;45392;-86
2022/01/05 00:28:05;;;;;;;;;2.00;2.00;;;;;7.43;56.18;100668.91;6312976;22;45935;-86
2022/01/05 00:30:31;;;;;;;;;1.75;1.50;;;;;7.39;57.08;100675.09;6312987;22;46038;-87
2022/01/05 00:32:56;;;;;;;;;4.00;1.00;;;;;7.37;56.61;100661.19;6341521;22;45416;-85
2022/01/05 00:35:22;;;;;;;;;3.25;1.75;;;;;7.35;55.56;100677.81;6313240;22;45653;-85
2022/01/05 00:37:47;;;;;;;;;2.00;0.00;;;;;7.30;56.14;100676.16;6313442;22;45871;-85
2022/01/05 00:40:12;;;;;;;;;1.50;1.00;;;;;7.25;55.50;100679.75;6341355;22;45214;-86
2022/01/05 00:42:38;;;;;;;;;2.00;1.00;;;;;7.22;55.74;100683.28;6341643;22;45190;-86
2022/01/05 00:45:04;;;;;;;;;1.25;1.00;;;;;7.24;56.18;100686.72;6341734;22;45230;-83
2022/01/05 00:47:30;;;;;;;;;4.00;2.25;;;;;7.22;56.05;100685.03;6340955;22;45223;-83
2022/01/05 00:49:55;;;;;;;;;2.00;1.25;;;;;7.17;55.58;100688.59;6341374;22;45294;-83
2022/01/05 00:52:20;;;;;;;;;4.25;2.00;;;;;7.18;56.14;100699.94;6312455;22;45753;-83
2022/01/05 00:54:46;;;;;;;;;1.50;1.50;;;;;7.20;56.46;100701.63;6341549;22;45188;-83
2022/01/05 00:57:11;;;;;;;;;5.25;1.00;;;;;7.24;55.91;100691.09;6341569;22;45151;-84
2022/01/05 00:59:37;;;;;;;;;1.25;1.00;;;;;7.25;55.93;100701.53;6341609;22;45397;-82
2022/01/05 01:02:03;;;;;;;;;2.50;1.75;;;;;7.23;56.16;100700.72;6341612;22;45306;-82
2022/01/05 01:04:28;;;;;;;;;7.25;2.75;;;;;7.24;56.09;100712.88;6313266;22;45375;-82
2022/01/05 01:06:53;;;;;;;;;3.00;1.00;;;;;7.20;56.24;100716.44;6341234;22;45484;-82
2022/01/05 01:09:19;;;;;;;;;1.50;1.00;;;;;7.21;56.11;100718.16;6341526;22;45379;-85
2022/01/05 01:11:44;;;;;;;;;2.00;2.00;;;;;7.22;56.30;100724.25;6341520;22;45329;-85
2022/01/05 01:14:10;;;;;;;;;2.00;2.00;;;;;7.23;55.92;100731.22;6341907;22;45254;-90
2022/01/05 01:16:35;;;;;;;;;1.50;1.00;;;;;7.26;56.31;100728.53;6341261;22;45345;-90
2022/01/05 01:19:01;;;;;;;;;1.25;1.25;;;;;7.31;56.62;100732.78;6341332;22;46111;-90
2022/01/05 01:21:26;;;;;;;;;3.50;2.00;;;;;7.30;56.39;100743.28;6340522;22;45344;-88
2022/01/05 01:23:55;;;;;;;;;1.00;1.00;;;;;7.29;56.30;100733.69;6340251;22;45176;-83
2022/01/05 01:26:27;;;;;;;;;3.00;1.75;;;;;7.26;56.08;100731.16;6340958;22;45392;-84
2022/01/05 01:28:52;;;;;;;;;7.00;2.75;;;;;7.24;55.66;100748.59;6341080;22;45337;-85
2022/01/05 01:31:17;;;;;;;;;1.75;1.75;;;;;7.25;56.19;100758.19;6341486;22;45207;-84
2022/01/05 01:33:43;;;;;;;;;3.75;2.00;;;;;7.22;56.59;100756.47;6341558;22;45200;-84
2022/01/05 01:36:09;;;;;;;;;3.25;1.25;;;;;7.23;55.99;100762.59;6340981;22;45464;-85
2022/01/05 01:38:34;;;;;;;;;5.75;2.00;;;;;7.23;55.98;100754.75;6341105;22;46578;-88
2022/01/05 01:40:59;;;;;;;;;4.00;2.75;;;;;7.23;56.63;100773.91;6340661;22;45273;-86
2022/01/05 01:43:25;;;;;;;;;3.50;2.50;;;;;7.20;56.64;100766.13;6313421;22;45344;-90
2022/01/05 01:45:50;;;;;;;;;5.00;3.00;;;;;7.19;56.60;100767.84;6313050;22;45307;-88
2022/01/05 01:48:17;;;;;;;;;4.25;2.00;;;;;7.23;56.16;100783.50;6341242;22;45397;-79
2022/01/05 01:50:43;;;;;;;;;3.75;1.75;;;;;7.20;56.01;100781.81;6341262;22;45361;-83
2022/01/05 01:53:08;;;;;;;;;3.50;2.50;;;;;7.18;56.83;100792.28;6340462;22;45339;-83
2022/01/05 01:55:35;;;;;;;;;4.50;2.00;;;;;7.23;56.44;100793.97;6340922;22;45314;-83
2022/01/05 01:58:01;;;;;;;;;3.00;2.25;;;;;7.22;56.92;100790.47;6341609;22;45484;-83
2022/01/05 02:00:29;;;;;;;;;3.00;2.00;;;;;7.27;56.83;100796.47;6340625;22;45597;-88
2022/01/05 02:02:55;;;;;;;;;2.00;1.00;;;;;7.27;57.02;100795.63;6341251;22;45175;-87
2022/01/05 02:05:21;;;;;;;;;3.25;2.75;;;;;7.34;56.92;100809.44;6312596;22;46018;-88
2022/01/05 02:07:46;;;;;;;;;3.25;2.00;;;;;7.31;57.17;100813.84;6312367;22;48184;-88
2022/01/05 02:10:12;;;;;;;;;5.00;3.75;;;;;7.34;57.40;100817.28;6313626;22;45828;-93
2022/01/05 02:12:38;;;;;;;;;4.50;2.00;;;;;7.31;56.71;100811.22;6313600;22;45356;-91
2022/01/05 02:15:04;;;;;;;;;5.50;2.00;;;;;7.32;57.25;100825.16;6313025;22;46902;-91
2022/01/05 02:17:46;;;;;;;;;2.50;2.00;;;;;7.32;57.30;100826.03;6313172;22;47093;-91
2022/01/05 02:20:20;;;;;;;;;3.00;3.00;;;;;7.32;56.68;100831.25;6341782;22;45726;-88
2022/01/05 02:22:47;;;;;;;;;3.00;1.75;;;;;7.29;56.81;100825.22;6340748;22;45207;-88
2022/01/05 02:25:13;;;;;;;;;5.75;2.25;;;;;7.26;56.46;100831.34;6341008;22;45417;-88
2022/01/05 02:27:45;;;;;;;;;1.75;1.75;;;;;7.29;56.48;100846.13;6312399;22;48107;-87
2022/01/05 02:30:13;;;;;;;;;3.25;3.00;;;;;7.25;55.47;100841.84;6340873;22;45256;-88
2022/01/05 02:32:39;;;;;;;;;3.25;2.00;;;;;7.18;55.91;100847.19;6340908;22;45333;-87
2022/01/05 02:35:06;;;;;;;;;4.00;2.75;;;;;7.13;56.14;100846.41;6312073;22;46853;-88
2022/01/05 02:37:31;;;;;;;;;2.50;2.50;;;;;7.14;56.26;100853.34;6312473;22;47147;-87
2022/01/05 02:39:57;;;;;;;;;3.25;1.25;;;;;7.14;56.39;100847.25;6340545;22;45206;-87
2022/01/05 02:42:29;;;;;;;;;2.25;1.25;;;;;7.11;56.45;100842.97;6312857;22;45419;-87
2022/01/05 02:44:56;;;;;;;;;3.25;1.00;;;;;7.14;56.45;100848.13;6339082;22;45688;-88
2022/01/05 02:47:22;;;;;;;;;2.00;1.00;;;;;7.10;56.04;100846.44;6340837;22;45531;-88
2022/01/05 02:49:48;;;;;;;;;8.00;2.00;;;;;7.08;56.17;100840.38;6312107;22;45192;-89
2022/01/05 02:52:14;;;;;;;;;2.25;2.00;;;;;7.08;56.44;100850.84;6312542;22;45251;-89
2022/01/05 02:54:41;;;;;;;;;1.00;1.00;;;;;7.08;56.33;100853.47;6339610;22;45343;-88
2022/01/05 02:57:07;;;;;;;;;1.25;1.25;;;;;7.04;56.77;100839.56;6339338;22;45393;-85
2022/01/05 02:59:32;;;;;;;;;4.25;2.25;;;;;7.03;57.21;100837.00;6312103;22;45369;-84
2022/01/05 03:01:57;;;;;;;;;5.00;2.00;;;;;7.03;56.62;100847.44;6341127;22;45192;-83
2022/01/05 03:04:23;;;;;;;;;3.50;1.25;;;;;6.97;56.61;100849.25;6340469;22;45246;-83
2022/01/05 03:06:48;;;;;;;;;2.00;2.00;;;;;6.98;55.86;100856.22;6339963;22;45755;-80
2022/01/05 03:09:14;;;;;;;;;4.00;2.00;;;;;6.92;56.59;100864.16;6340623;22;45235;-81
2022/01/05 03:11:39;;;;;;;;;2.00;2.00;;;;;6.92;56.25;100865.91;6341605;22;45343;-82
2022/01/05 03:14:05;;;;;;;;;5.00;3.00;;;;;6.90;56.48;100873.75;6342006;22;45395;-83
2022/01/05 03:16:30;;;;;;;;;1.50;1.50;;;;;6.92;56.77;100889.41;6341748;22;46340;-91
2022/01/05 03:18:55;;;;;;;;;3.00;1.00;;;;;6.90;56.22;100876.38;6313666;22;45617;-91
2022/01/05 03:21:20;;;;;;;;;5.00;2.00;;;;;6.92;56.34;100886.78;6313470;22;45294;-89
2022/01/05 03:23:47;;;;;;;;;1.75;1.75;;;;;6.90;56.66;100889.44;6342277;22;45326;-91
2022/01/05 03:26:13;;;;;;;;;2.50;2.50;;;;;6.91;56.11;100888.56;6313397;22;47106;-89
2022/01/05 03:28:38;;;;;;;;;5.00;3.00;;;;;6.88;56.49;100893.84;6341919;22;45116;-89
2022/01/05 03:31:04;;;;;;;;;2.00;0.50;;;;;6.89;56.75;100895.53;6342678;22;45141;-92
2022/01/05 03:33:29;;;;;;;;;2.75;2.75;;;;;6.89;56.28;100900.78;6314694;22;46024;-93
2022/01/05 03:35:54;;;;;;;;;5.00;1.50;;;;;6.89;56.13;100910.38;6342312;22;45441;-93
2022/01/05 03:38:20;;;;;;;;;3.75;2.00;;;;;6.85;56.08;100901.72;6342872;22;45202;-92
2022/01/05 03:40:47;;;;;;;;;3.00;1.00;;;;;6.86;56.64;100906.06;6314149;22;45339;-92
2022/01/05 03:43:14;;;;;;;;;2.75;2.00;;;;;6.90;56.36;100923.41;6342690;22;45558;-90
2022/01/05 03:45:40;;;;;;;;;1.00;1.00;;;;;6.88;56.23;100916.47;6313831;22;47156;-91
2022/01/05 03:48:08;;;;;;;;;4.25;3.25;;;;;6.85;56.40;100926.09;6342022;22;45257;-84
2022/01/05 03:50:34;;;;;;;;;1.75;1.00;;;;;6.85;56.43;100935.69;6341767;22;45206;-84
2022/01/05 03:52:59;;;;;;;;;3.00;1.50;;;;;6.80;56.46;100932.25;6341561;22;45346;-80
2022/01/05 03:55:25;;;;;;;;;2.00;2.00;;;;;6.79;56.36;100935.78;6341622;22;46061;-87
2022/01/05 03:57:50;;;;;;;;;2.25;1.50;;;;;6.79;56.73;100933.16;6313346;22;45186;-87
2022/01/05 04:00:16;;;;;;;;;2.00;1.50;;;;;6.83;56.59;100940.06;6341847;22;45101;-88
2022/01/05 04:02:42;;;;;;;;;3.25;1.00;;;;;6.82;56.90;100940.94;6341578;22;45330;-84
2022/01/05 04:05:08;;;;;;;;;2.00;1.00;;;;;6.83;56.55;100940.94;6341477;22;45422;-85
2022/01/05 04:07:33;;;;;;;;;0.00;0.00;;;;;6.83;56.45;100942.69;6341752;22;45330;-83
2022/01/05 04:09:59;;;;;;;;;1.00;1.00;;;;;6.79;56.59;100936.63;6342039;22;45286;-83
2022/01/05 04:12:24;;;;;;;;;4.00;3.00;;;;;6.83;56.83;100947.91;6341965;22;45347;-89
2022/01/05 04:14:50;;;;;;;;;2.50;2.00;;;;;6.78;57.15;100945.38;6341556;22;45925;-78
2022/01/05 04:17:15;;;;;;;;;1.00;1.00;;;;;6.79;56.79;100954.91;6341159;22;45341;-77
2022/01/05 04:19:40;;;;;;;;;2.25;2.25;;;;;6.79;57.10;100957.53;6342116;22;45368;-79
2022/01/05 04:22:06;;;;;;;;;2.75;2.25;;;;;6.80;57.34;100959.25;6340689;22;45402;-81
2022/01/05 04:24:31;;;;;;;;;4.00;1.75;;;;;6.78;57.66;100961.03;6341524;22;45383;-80
2022/01/05 04:26:56;;;;;;;;;4.50;3.00;;;;;6.78;57.86;100961.03;6341346;22;45387;-84
2022/01/05 04:29:22;;;;;;;;;1.00;0.50;;;;;6.78;57.61;100961.03;6313474;22;45506;-84
2022/01/05 04:31:47;;;;;;;;;4.75;1.25;;;;;6.79;57.56;100959.28;6313153;22;45946;-83
2022/01/05 04:34:13;;;;;;;;;1.75;1.75;;;;;6.78;57.13;100968.00;6313147;22;48054;-91
2022/01/05 04:36:38;;;;;;;;;1.00;1.00;;;;;6.74;57.09;100968.03;6341351;22;45300;-88
2022/01/05 04:39:04;;;;;;;;;2.25;2.25;;;;;6.71;57.22;100975.94;6341614;22;45436;-90
2022/01/05 04:41:29;;;;;;;;;1.50;1.00;;;;;6.69;57.73;100964.63;6341816;22;45537;-93
2022/01/05 04:43:54;;;;;;;;;2.00;2.00;;;;;6.67;57.47;100966.38;6313622;22;47105;-88
2022/01/05 04:46:20;;;;;;;;;3.00;1.50;;;;;6.68;57.77;100969.88;6341399;22;45124;-85
2022/01/05 04:48:45;;;;;;;;;2.50;1.75;;;;;6.62;57.51;100971.69;6313479;22;45294;-86
2022/01/05 04:51:11;;;;;;;;;2.00;1.00;;;;;6.59;57.35;100976.94;6341479;22;45371;-85
2022/01/05 04:53:36;;;;;;;;;3.75;2.00;;;;;6.59;58.02;100982.16;6341191;22;46436;-85
2022/01/05 04:56:01;;;;;;;;;2.00;2.00;;;;;6.59;58.09;100982.16;6341332;22;45134;-85
2022/01/05 04:58:27;;;;;;;;;3.25;2.75;;;;;6.59;58.38;100982.16;6342041;22;45882;-85
2022/01/05 05:00:53;;;;;;;;;4.00;1.00;;;;;6.58;58.16;100990.03;6312701;22;46159;-86
2022/01/05 05:03:18;;;;;;;;;3.25;3.25;;;;;6.56;57.95;100992.66;6313214;22;46933;-86
2022/01/05 05:05:44;;;;;;;;;3.00;3.00;;;;;6.57;57.63;100993.53;6341188;22;45333;-86
2022/01/05 05:08:09;;;;;;;;;2.00;2.00;;;;;6.56;58.13;100994.41;6341190;22;45278;-81
2022/01/05 05:10:34;;;;;;;;;3.50;2.25;;;;;6.50;57.90;100988.38;6313222;22;46718;-85
2022/01/05 05:13:09;;;;;;;;;3.00;3.00;;;;;6.51;57.73;100992.72;6341172;22;46519;-82
2022/01/05 05:15:35;;;;;;;;;1.25;1.25;;;;;6.48;57.82;101008.41;6341308;22;45740;-82
2022/01/05 05:18:01;;;;;;;;;2.00;2.00;;;;;6.46;57.57;101007.56;6341249;22;45220;-85
2022/01/05 05:20:26;;;;;;;;;3.25;2.00;;;;;6.49;58.09;101022.34;6341193;22;45263;-86
2022/01/05 05:22:52;;;;;;;;;3.75;3.00;;;;;6.48;57.69;101018.00;6306190;22;47113;-87
2022/01/05 05:25:17;;;;;;;;;4.25;3.25;;;;;6.41;58.11;101014.59;6309981;22;45127;-86
2022/01/05 05:27:42;;;;;;;;;1.50;1.50;;;;;6.41;58.08;101018.06;6310116;22;45685;-85
2022/01/05 05:30:08;;;;;;;;;5.00;1.50;;;;;6.44;58.14;101027.63;6309661;22;45149;-84
2022/01/05 05:32:34;;;;;;;;;4.75;3.00;;;;;6.44;57.85;101025.00;6309555;22;45242;-84
2022/01/05 05:34:59;;;;;;;;;5.75;3.00;;;;;6.44;58.41;101026.75;6309154;22;45143;-84
2022/01/05 05:37:24;;;;;;;;;5.00;3.25;;;;;6.44;58.60;101029.38;6309914;22;45146;-84
2022/01/05 05:39:50;;;;;;;;;4.00;4.00;;;;;6.43;58.38;101027.63;6309678;22;45353;-83
2022/01/05 05:42:15;;;;;;;;;3.50;2.00;;;;;6.42;58.51;101039.81;6309899;22;45229;-82
2022/01/05 05:44:40;;;;;;;;;6.25;2.75;;;;;6.43;58.61;101038.06;6309209;22;45271;-82
2022/01/05 05:47:06;;;;;;;;;5.25;2.00;;;;;6.36;58.48;101048.59;6309978;22;45136;-83
2022/01/05 05:49:32;;;;;;;;;3.50;2.00;;;;;6.36;58.52;101058.16;6309712;22;45195;-83
2022/01/05 05:51:58;;;;;;;;;4.00;2.75;;;;;6.38;58.48;101062.50;6309280;22;45298;-83
2022/01/05 05:54:23;;;;;;;;;4.00;1.25;;;;;6.35;58.84;101065.13;6309293;22;45338;-82
2022/01/05 05:56:48;;;;;;;;;3.00;3.00;;;;;6.35;58.86;101062.50;6309927;22;45249;-81
2022/01/05 05:59:14;;;;;;;;;3.00;3.00;;;;;6.32;57.93;101046.91;6309516;22;45278;-81
2022/01/05 06:01:39;;;;;;;;;7.25;3.00;;;;;6.29;58.56;101055.63;6309469;22;45402;-81
2022/01/05 06:04:04;;;;;;;;;3.00;2.00;;;;;6.29;58.43;101055.63;6307275;22;45309;-82
2022/01/05 06:06:30;;;;;;;;;2.25;2.00;;;;;6.30;58.14;101067.78;6309538;22;45304;-81
2022/01/05 06:08:55;;;;;;;;;3.00;2.25;;;;;6.26;58.18;101067.81;6309311;22;45593;-85
2022/01/05 06:11:21;;;;;;;;;2.25;1.50;;;;;6.24;58.54;101062.63;6309401;22;45329;-87
2022/01/05 06:13:46;;;;;;;;;2.25;2.00;;;;;6.26;58.08;101066.09;6309466;22;45270;-86
2022/01/05 06:16:12;;;;;;;;;2.25;1.25;;;;;6.29;58.54;101073.03;6309468;22;45163;-86
2022/01/05 06:18:37;;;;;;;;;1.25;0.25;;;;;6.27;58.35;101064.34;6307518;22;45935;-83
2022/01/05 06:21:03;;;;;;;;;3.25;2.00;;;;;6.32;57.96;101077.34;6307521;22;47379;-88
2022/01/05 06:23:28;;;;;;;;;1.00;1.00;;;;;6.28;58.52;101081.72;6340418;22;45225;-85
2022/01/05 06:25:54;;;;;;;;;3.00;2.25;;;;;6.26;58.25;101078.28;6339118;22;45244;-79
2022/01/05 06:28:19;;;;;;;;;4.75;1.75;;;;;6.27;58.57;101080.00;6340354;22;45251;-79
2022/01/05 06:30:44;;;;;;;;;4.00;2.00;;;;;6.30;58.41;101082.56;6340701;22;45207;-79
2022/01/05 06:33:10;;;;;;;;;8.00;3.25;;;;;6.29;58.74;101083.47;6340518;22;45234;-79
2022/01/05 06:35:35;;;;;;;;;4.25;2.00;;;;;6.29;58.45;101083.47;6311722;22;45331;-79
2022/01/05 06:38:01;;;;;;;;;3.75;3.00;;;;;6.31;58.30;101092.16;6340442;22;45132;-79
2022/01/05 06:40:26;;;;;;;;;3.00;1.75;;;;;6.33;58.96;101099.97;6311046;22;46166;-80
2022/01/05 06:42:52;;;;;;;;;1.75;1.75;;;;;6.35;59.29;101108.63;6340693;22;45458;-79
2022/01/05 06:45:17;;;;;;;;;4.00;3.00;;;;;6.32;58.91;101099.13;6340733;22;45279;-79
2022/01/05 06:47:43;;;;;;;;;3.00;3.00;;;;;6.31;59.19;101102.59;6339869;22;45461;-79
2022/01/05 06:50:10;;;;;;;;;4.00;4.00;;;;;6.32;59.61;101104.34;6340450;22;45336;-79
2022/01/05 06:52:36;;;;;;;;;7.25;6.00;;;;;6.30;59.23;101117.38;6340910;22;45251;-79
2022/01/05 06:55:02;;;;;;;;;4.75;2.75;;;;;6.32;59.35;101124.34;6340932;22;45408;-79
2022/01/05 06:57:28;;;;;;;;;4.00;3.50;;;;;6.31;59.14;101123.47;6340671;22;45227;-79
2022/01/05 06:59:53;;;;;;;;;4.75;4.00;;;;;6.29;59.72;101123.50;6340780;22;45485;-79
2022/01/05 07:02:19;;;;;;;;;5.00;4.25;;;;;6.32;59.59;101135.66;6340703;22;45141;-79
2022/01/05 07:04:44;;;;;;;;;3.75;3.25;;;;;6.29;59.28;101131.34;6340422;22;45346;-79
2022/01/05 07:07:09;;;;;;;;;6.75;3.00;;;;;6.32;59.48;101145.25;6339451;22;45207;-79
2022/01/05 07:09:35;;;;;;;;;3.00;3.00;;;;;6.27;59.19;101127.84;6340371;22;45440;-79
2022/01/05 07:12:00;;;;;;;;;1.75;1.75;;;;;6.26;59.47;101130.47;6340672;22;45224;-79
2022/01/05 07:14:26;;;;;;;;;4.00;3.00;;;;;6.24;59.56;101138.34;6340752;22;45195;-79
2022/01/05 07:16:51;;;;;;;;;3.00;3.00;;;;;6.24;59.73;101140.94;6340683;22;45416;-87
2022/01/05 07:19:17;;;;;;;;;2.75;1.75;;;;;6.25;59.53;101137.44;6340788;22;45207;-80
2022/01/05 07:21:44;;;;;;;;;2.00;1.00;;;;;6.22;59.64;101144.44;6339697;22;45808;-80
2022/01/05 07:24:12;;;;;;;;;2.00;1.75;;;;;6.15;59.43;101147.09;6340370;22;45247;-80
2022/01/05 07:26:39;;;;;;;;;4.00;2.75;;;;;6.13;59.32;101155.81;6339605;22;45219;-80
2022/01/05 07:29:04;;;;;;;;;3.00;2.50;;;;;6.11;59.57;101165.41;6338904;22;45348;-80
2022/01/05 07:31:30;;;;;;;;;4.00;3.00;;;;;6.06;59.56;101158.44;6339497;22;45217;-79
2022/01/05 07:33:55;;;;;;;;;5.75;2.00;;;;;6.06;59.44;101166.28;6339376;22;45473;-80
2022/01/05 07:36:20;;;;;;;;;3.00;2.50;;;;;6.04;59.67;101162.81;6339886;22;45156;-79
2022/01/05 07:38:46;;;;;;;;;1.75;1.25;;;;;6.08;59.88;101180.22;6339821;22;45169;-79
2022/01/05 07:41:11;;;;;;;;;3.25;2.00;;;;;6.06;59.99;101171.50;6340094;22;45150;-79
2022/01/05 07:43:37;;;;;;;;;5.50;3.00;;;;;6.03;59.93;101178.47;6340317;22;45160;-79
2022/01/05 07:46:02;;;;;;;;;3.25;2.25;;;;;6.00;59.51;101179.34;6340258;22;45362;-79
2022/01/05 07:48:28;;;;;;;;;3.75;1.75;;;;;5.96;59.88;101181.13;6339796;22;45302;-79
2022/01/05 07:50:53;;;;;;;;;3.00;2.00;;;;;5.91;59.77;101182.03;6340389;22;45348;-79
2022/01/05 07:53:18;;;;;;;;;4.00;2.75;;;;;5.89;59.90;101186.38;6340237;22;45249;-79
2022/01/05 07:55:44;;;;;;;;;3.00;2.00;;;;;5.88;60.02;101189.91;6339263;22;45364;-79
2022/01/05 07:58:09;;;;;;;;;4.00;3.00;;;;;5.87;60.13;101193.38;6340570;22;46348;-82
2022/01/05 08:00:35;;;;;;;;;2.00;2.00;;;;;5.87;60.49;101190.75;6341767;22;45323;-79
2022/01/05 08:03:01;;;;;;;;;2.25;2.00;;;;;5.89;60.50;101196.81;6341989;22;45243;-79
2022/01/05 08:05:26;;;;;;;;;1.50;1.25;;;;;5.88;60.21;101197.72;6341282;22;45334;-78
2022/01/05 08:07:51;;;;;;;;;3.00;3.00;;;;;5.91;60.39;101202.91;6340666;22;46369;-79
2022/01/05 08:10:17;;;;;;;;;4.00;3.00;;;;;5.91;60.52;101208.13;6341671;22;45185;-79
2022/01/05 08:12:42;;;;;;;;;5.50;4.00;;;;;5.94;60.22;101208.09;6342080;22;45193;-79
2022/01/05 08:15:11;;;;;;;;;6.00;4.25;;;;;5.96;60.22;101216.78;6341535;22;45429;-79
2022/01/05 08:17:38;;;;;;;;;5.00;3.00;;;;;5.97;60.44;101214.16;6341437;22;45598;-79
2022/01/05 08:20:06;;;;;;;;;3.75;2.50;;;;;5.98;60.27;101212.41;6341658;22;45296;-79
2022/01/05 08:22:31;;;;;;;;;5.25;3.25;;;;;5.97;60.30;101223.75;6341406;22;45159;-79
2022/01/05 08:24:57;;;;;;;;;1.75;1.75;;;;;5.97;60.13;101235.03;6341502;22;45361;-79
2022/01/05 08:27:22;;;;;;;;;3.00;1.00;;;;;5.95;60.09;101233.34;6341327;22;45417;-79
2022/01/05 08:29:48;;;;;;;;;2.50;1.00;;;;;5.99;60.49;101232.44;6341700;22;45130;-79
2022/01/05 08:32:14;;;;;;;;;3.75;3.75;;;;;6.00;60.57;101230.69;6342120;22;45693;-79
2022/01/05 08:34:40;;;;;;;;;6.25;4.00;;;;;6.00;60.62;101234.16;6313033;22;45651;-79
2022/01/05 08:37:05;;;;;;;;;4.00;4.00;;;;;6.03;60.80;101239.38;6341172;22;45186;-79
2022/01/05 08:39:30;;;;;;;;;2.00;2.00;;;;;6.03;60.61;101236.75;6313228;22;45169;-79
2022/01/05 08:41:56;;;;;;;;;6.00;2.00;;;;;6.11;60.52;101241.09;6313708;22;45427;-82
2022/01/05 08:44:21;;;;;;;;;5.00;2.75;;;;;6.08;59.95;101241.97;6341465;22;45268;-79
2022/01/05 08:46:47;;;;;;;;;6.25;2.50;;;;;6.05;60.31;101245.44;6341222;22;45346;-79
2022/01/05 08:49:12;;;;;;;;;4.75;2.75;;;;;6.05;60.70;101237.59;6341540;22;45247;-79
2022/01/05 08:51:38;;;;;;;;;3.00;1.75;;;;;6.07;60.06;101251.53;6341176;22;45365;-79
2022/01/05 08:54:05;;;;;;;;;4.00;2.00;;;;;6.12;60.87;101256.75;6341655;22;45286;-79
2022/01/05 08:56:31;;;;;;;;;2.25;2.25;;;;;6.10;60.30;101245.44;6341019;22;46372;-80
2022/01/05 08:58:56;;;;;;;;;5.00;4.25;;;;;6.11;60.53;101249.78;6341404;22;45372;-78
2022/01/05 09:01:23;;;;;;;;;0.50;0.00;;;;;6.12;60.22;101253.28;6341632;22;45579;-79
2022/01/05 09:03:48;;;;;;;;;2.00;2.00;;;;;6.11;60.06;101252.41;6341022;22;45451;-79
2022/01/05 09:06:13;;;;;;;;;3.00;3.00;;;;;6.14;60.44;101257.63;6341123;22;45270;-79
2022/01/05 09:08:39;;;;;;;;;3.50;3.25;;;;;6.10;60.79;101258.50;6340552;22;45219;-79
2022/01/05 09:11:07;;;;;;;;;7.50;3.00;;;;;6.12;60.40;101263.72;6341463;22;45177;-79
2022/01/05 09:13:32;;;;;;;;;1.00;1.00;;;;;6.16;60.88;101273.25;6341427;22;45480;-79
2022/01/05 09:15:58;;;;;;;;;2.50;2.00;;;;;6.16;60.51;101273.25;6341273;22;46351;-79
2022/01/05 09:18:24;;;;;;;;;5.75;3.75;;;;;6.15;60.78;101276.75;6341250;22;45215;-79
2022/01/05 09:20:49;;;;;;;;;5.50;3.00;;;;;6.16;60.64;101275.88;6341461;22;45298;-79
2022/01/05 09:23:14;;;;;;;;;3.75;1.50;;;;;6.16;60.28;101275.88;6340668;22;45326;-79
2022/01/05 09:25:40;;;;;;;;;5.00;2.00;;;;;6.15;60.58;101280.22;6313010;22;46443;-78
2022/01/05 09:28:05;;;;;;;;;4.50;3.00;;;;;6.15;60.60;101275.00;6341411;22;45374;-80
2022/01/05 09:30:31;;;;;;;;;3.75;3.00;;;;;6.15;60.44;101280.22;6341468;22;45892;-78
2022/01/05 09:32:58;;;;;;;;;2.25;2.00;;;;;6.19;60.90;101288.91;6340838;22;45270;-78
2022/01/05 09:35:25;;;;;;;;;5.00;3.50;;;;;6.24;61.00;101288.88;6341184;22;45166;-78
2022/01/05 09:38:06;;;;;;;;;4.00;2.00;;;;;6.26;60.61;101302.78;6341224;22;45667;-78
2022/01/05 09:43:15;;;;;;;;;5.25;4.00;;;;;6.38;60.86;101310.56;6340974;22;45352;-79
2022/01/05 09:45:52;;;;;;;;;2.50;2.50;;;;;6.44;61.09;101306.16;6340286;22;45358;-78
2022/01/05 09:48:25;;;;;;;;;3.25;3.00;;;;;6.48;60.72;101306.13;6341290;22;45168;-78
2022/01/05 09:50:58;;;;;;;;;6.00;2.75;;;;;6.56;60.75;101316.53;6341010;22;45366;-78
2022/01/05 09:53:24;;;;;;;;;4.00;3.00;;;;;6.56;60.80;101313.94;6340099;22;45409;-78
2022/01/05 09:55:51;;;;;;;;;2.00;1.75;;;;;6.59;60.57;101320.88;6341126;22;45600;-78
2022/01/05 09:58:20;;;;;;;;;5.00;2.25;;;;;6.63;60.19;101330.41;6312936;22;45399;-79
2022/01/05 10:00:45;;;;;;;;;4.00;4.00;;;;;6.63;60.66;101328.69;6341072;22;45207;-79
2022/01/05 10:03:14;;;;;;;;;2.00;2.00;;;;;6.69;60.61;101337.34;6341203;22;45174;-78
2022/01/05 10:05:40;;;;;;;;;4.50;2.50;;;;;6.70;60.27;101344.28;6339667;22;45404;-77
2022/01/05 10:08:05;;;;;;;;;5.50;3.00;;;;;6.73;60.74;101339.06;6340845;22;45306;-77
2022/01/05 10:10:31;;;;;;;;;6.00;3.75;;;;;6.78;60.36;101344.25;6340986;22;45281;-77
2022/01/05 10:12:57;;;;;;;;;3.50;1.75;;;;;6.75;60.78;101335.56;6340602;22;45330;-77
2022/01/05 10:15:22;;;;;;;;;5.25;4.75;;;;;6.80;60.58;101339.88;6341355;22;45250;-77
2022/01/05 10:17:48;;;;;;;;;4.50;4.50;;;;;6.86;60.66;101339.84;6340864;22;45211;-77
2022/01/05 10:20:13;;;;;;;;;5.25;3.75;;;;;6.89;60.54;101331.97;6339233;22;45176;-77
2022/01/05 10:22:42;;;;;;;;;5.00;4.75;;;;;6.94;60.50;101339.78;6339081;22;45463;-77
2022/01/05 10:25:20;;;;;;;;;6.50;4.00;;;;;6.94;60.21;101347.63;6340012;22;45330;-77
2022/01/05 10:28:00;;;;;;;;;9.00;4.50;;;;;6.98;60.87;101350.19;6341042;22;45253;-77
2022/01/05 10:30:43;;;;;;;;;4.25;4.25;;;;;7.08;60.39;101347.50;6340820;22;45215;-77
2022/01/05 10:33:09;;;;;;;;;4.75;4.75;;;;;7.14;60.73;101357.03;6339934;22;45155;-77
2022/01/05 10:35:35;;;;;;;;;6.25;3.00;;;;;7.19;60.60;101369.19;6340220;22;45273;-77
2022/01/05 10:38:03;;;;;;;;;5.00;3.75;;;;;7.26;60.28;101363.91;6339799;22;45688;-77
2022/01/05 10:40:33;;;;;;;;;4.50;4.50;;;;;7.34;60.17;101371.66;6339742;22;45286;-77
2022/01/05 10:42:58;;;;;;;;;5.00;4.00;;;;;7.37;60.20;101364.69;6340708;22;45209;-77
2022/01/05 10:45:40;;;;;;;;;2.00;2.00;;;;;7.44;59.22;101370.72;6340142;22;46357;-77
2022/01/05 10:48:08;;;;;;;;;2.75;2.75;;;;;7.43;59.51;101371.59;6340160;22;45377;-77
2022/01/05 10:50:34;;;;;;;;;4.75;3.75;;;;;7.43;59.65;101369.84;6340187;22;45224;-77
2022/01/05 10:53:01;;;;;;;;;4.25;2.00;;;;;7.41;59.18;101374.22;6340432;22;45383;-77
2022/01/05 10:55:29;;;;;;;;;6.00;2.50;;;;;7.43;58.94;101372.44;6340576;22;46409;-77
2022/01/05 10:58:06;;;;;;;;;2.75;2.25;;;;;7.50;59.52;101377.63;6340427;22;45232;-77
2022/01/05 11:00:40;;;;;;;;;5.00;4.00;;;;;7.55;59.59;101375.84;6340676;22;45385;-77
2022/01/05 11:03:22;;;;;;;;;4.00;4.00;;;;;7.58;58.60;101374.97;6338670;22;45353;-77
2022/01/05 11:06:07;;;;;;;;;5.75;3.00;;;;;7.61;59.31;101367.94;6340207;22;46214;-77
2022/01/05 11:08:52;;;;;;;;;5.00;3.00;;;;;7.61;58.87;101378.38;6339288;22;45717;-77
2022/01/05 11:11:49;;;;;;;;;8.25;3.25;;;;;7.63;58.29;101363.53;6314176;22;45488;-77
2022/01/05 11:14:20;;;;;;;;;6.25;3.00;;;;;7.65;57.79;101368.78;6307495;22;45504;-77
2022/01/05 11:16:51;;;;;;;;;6.00;4.00;;;;;7.68;57.93;101376.56;6339133;22;46321;-77
2022/01/05 11:19:30;;;;;;;;;4.25;3.00;;;;;7.68;58.04;101370.50;6339419;22;45906;-77
2022/01/05 11:22:05;;;;;;;;;4.75;1.50;;;;;7.71;58.17;101373.06;6339948;22;45167;-77
2022/01/05 11:24:37;;;;;;;;;3.50;2.25;;;;;7.69;57.29;101372.22;6340493;22;45208;-77
2022/01/05 11:27:05;;;;;;;;;3.75;3.00;;;;;7.66;57.25;101375.72;6340472;22;45316;-77
2022/01/05 11:29:31;;;;;;;;;6.50;2.75;;;;;7.72;57.01;101377.41;6339749;22;45178;-77
2022/01/05 11:31:57;;;;;;;;;7.50;4.00;;;;;7.70;57.59;101368.72;6340391;22;45156;-77
2022/01/05 11:34:23;;;;;;;;;1.50;1.50;;;;;7.69;57.88;101361.75;6341489;22;45318;-77